Time;durP1;ratioP1;P1;durP2;ratioP2;P2;SDS_P1;SDS_P2;PMS_P1;PMS_P2;Temp;Humidity;BMP_temperature;BMP_pressure;BME280_temperature;BME280_humidity;BME280_pressure;Samples;Min_cycle;Max_cycle;Signal;HPM_P1;HPM_P2
2021/04/07 00:00:41;;;;;;;9.77;2.22;;;0.10;94.50;;;;;;4985624;28;20402;-66
2021/04/07 00:03:08;;;;;;;14.50;3.00;;;0.20;94.40;;;;;;4986404;28;20057;-66
2021/04/07 00:05:40;;;;;;;9.45;2.72;;;0.10;94.30;;;;;;4982428;28;20030;-66
2021/04/07 00:08:06;;;;;;;22.50;3.40;;;0.20;94.40;;;;;;4985115;28;20490;-67
2021/04/07 00:10:41;;;;;;;7.90;2.88;;;0.10;94.50;;;;;;4981826;28;20081;-67
2021/04/07 00:13:08;;;;;;;16.42;3.38;;;0.10;94.60;;;;;;4983159;28;20181;-67
2021/04/07 00:15:34;;;;;;;22.98;2.75;;;0.10;94.60;;;;;;4984337;28;20042;-67
2021/04/07 00:18:02;;;;;;;19.05;3.58;;;0.10;94.60;;;;;;4984702;28;20086;-67
2021/04/07 00:20:28;;;;;;;8.90;1.88;;;0.10;94.60;;;;;;4977995;28;20030;-67
2021/04/07 00:22:55;;;;;;;12.35;2.20;;;0.10;94.70;;;;;;4984743;28;20026;-67
2021/04/07 00:25:22;;;;;;;17.73;2.42;;;0.10;94.80;;;;;;4977035;28;20037;-67
2021/04/07 00:27:56;;;;;;;9.65;2.25;;;0.20;94.70;;;;;;4979763;28;20369;-66
2021/04/07 00:30:25;;;;;;;12.60;2.53;;;0.10;94.60;;;;;;4975406;28;20407;-68
2021/04/07 00:32:51;;;;;;;10.15;2.10;;;0.20;94.30;;;;;;4982394;28;20085;-69
2021/04/07 00:35:17;;;;;;;8.77;2.25;;;0.10;94.00;;;;;;4975625;28;20033;-69
2021/04/07 00:37:42;;;;;;;12.63;2.60;;;0.10;93.90;;;;;;4981886;28;20041;-67
2021/04/07 00:40:09;;;;;;;12.52;1.80;;;0.10;93.80;;;;;;4978274;28;20030;-69
2021/04/07 00:42:36;;;;;;;12.60;3.08;;;0.10;93.80;;;;;;4985478;28;20031;-68
2021/04/07 00:45:07;;;;;;;9.10;2.50;;;0.10;93.70;;;;;;4986275;28;20026;-69
2021/04/07 00:47:33;;;;;;;12.02;2.70;;;0.10;93.80;;;;;;4986464;28;20521;-69
2021/04/07 00:49:59;;;;;;;11.93;2.47;;;0.00;93.80;;;;;;4985354;28;20614;-69
2021/04/07 00:52:24;;;;;;;11.82;2.85;;;0.00;93.70;;;;;;4986846;28;20121;-68
2021/04/07 00:54:52;;;;;;;13.65;2.78;;;-3276.70;93.70;;;;;;4984196;28;21271;-68
2021/04/07 00:57:18;;;;;;;11.45;2.72;;;-3276.70;93.80;;;;;;4978189;28;20035;-68
2021/04/07 00:59:45;;;;;;;14.57;2.78;;;-3276.60;93.90;;;;;;4979012;28;20038;-69
2021/04/07 01:02:13;;;;;;;15.07;2.47;;;-3276.60;93.90;;;;;;4980192;28;20030;-68
2021/04/07 01:04:39;;;;;;;8.30;2.85;;;-3276.60;94.00;;;;;;4987541;28;20026;-67
2021/04/07 01:07:05;;;;;;;11.25;2.63;;;-3276.60;94.00;;;;;;4985658;28;20019;-67
2021/04/07 01:09:30;;;;;;;14.43;3.17;;;-3276.60;93.90;;;;;;4974709;28;20041;-67
2021/04/07 01:11:56;;;;;;;12.90;3.33;;;-3276.50;94.00;;;;;;4979760;28;20026;-67
2021/04/07 01:14:22;;;;;;;12.90;3.03;;;-3276.50;94.20;;;;;;4981251;28;20495;-67
2021/04/07 01:16:48;;;;;;;12.93;3.30;;;-3276.50;94.20;;;;;;4988037;28;20034;-67
2021/04/07 01:19:14;;;;;;;16.90;2.60;;;-3276.40;94.30;;;;;;4981931;28;20022;-66
2021/04/07 01:21:42;;;;;;;12.48;2.65;;;-3276.40;94.40;;;;;;4983827;28;20035;-67
2021/04/07 01:24:09;;;;;;;10.00;3.25;;;-3276.50;94.50;;;;;;4985308;28;20022;-66
2021/04/07 01:26:35;;;;;;;9.63;2.80;;;-3276.50;94.40;;;;;;4985609;28;20030;-67
2021/04/07 01:29:01;;;;;;;11.07;3.03;;;-3276.50;94.60;;;;;;4981950;28;20540;-68
2021/04/07 01:31:27;;;;;;;8.35;3.10;;;-3276.60;94.60;;;;;;4982900;28;20023;-68
2021/04/07 01:33:53;;;;;;;10.73;3.47;;;-3276.60;94.70;;;;;;4984620;28;20062;-67
2021/04/07 01:36:24;;;;;;;8.70;3.10;;;-3276.50;94.70;;;;;;4984824;28;20050;-68
2021/04/07 01:38:51;;;;;;;18.52;3.70;;;-3276.50;94.70;;;;;;4979679;28;20058;-67
2021/04/07 01:41:20;;;;;;;8.30;2.97;;;-3276.50;94.60;;;;;;4981325;28;20048;-67
2021/04/07 01:43:48;;;;;;;10.57;2.28;;;-3276.60;94.50;;;;;;4987897;28;20034;-67
2021/04/07 01:46:14;;;;;;;11.32;3.13;;;-3276.50;94.40;;;;;;4978104;28;20030;-67
2021/04/07 01:48:41;;;;;;;11.65;3.75;;;-3276.60;94.30;;;;;;4978084;28;20031;-67
2021/04/07 01:51:09;;;;;;;14.93;3.53;;;-3276.50;94.10;;;;;;4978155;28;20098;-68
2021/04/07 01:53:35;;;;;;;19.40;4.03;;;-3276.60;94.10;;;;;;4984524;28;20034;-67
2021/04/07 01:56:01;;;;;;;18.88;3.33;;;-3276.50;94.00;;;;;;4980884;28;20113;-67
2021/04/07 01:58:26;;;;;;;10.27;3.55;;;-3276.50;94.00;;;;;;4986305;28;20034;-68
2021/04/07 02:00:52;;;;;;;16.85;3.97;;;-3276.50;94.20;;;;;;4981485;28;20495;-68
2021/04/07 02:03:17;;;;;;;13.48;3.92;;;-3276.40;94.30;;;;;;4985787;28;20015;-67
2021/04/07 02:05:43;;;;;;;11.70;3.20;;;-3276.40;94.30;;;;;;4979282;28;20066;-67
2021/04/07 02:08:09;;;;;;;13.73;3.47;;;-3276.30;94.40;;;;;;4991040;28;20038;-67
2021/04/07 02:10:34;;;;;;;8.50;3.03;;;-3276.30;94.60;;;;;;4988630;28;20045;-68
2021/04/07 02:13:03;;;;;;;17.67;4.20;;;-3276.30;94.70;;;;;;4983476;28;20034;-68
2021/04/07 02:15:28;;;;;;;7.97;2.80;;;-3276.30;94.70;;;;;;4984570;28;20046;-68
2021/04/07 02:17:54;;;;;;;14.88;4.05;;;-3276.30;94.70;;;;;;4988052;28;20034;-68
2021/04/07 02:20:20;;;;;;;17.88;3.20;;;-3276.30;94.80;;;;;;4987913;28;20411;-68
2021/04/07 02:22:48;;;;;;;15.35;3.22;;;-3276.30;94.80;;;;;;4983701;28;20019;-68
2021/04/07 02:25:14;;;;;;;10.98;3.33;;;-3276.20;94.90;;;;;;4989784;28;20018;-68
2021/04/07 02:27:40;;;;;;;19.58;3.38;;;-3276.20;95.00;;;;;;4980150;28;20477;-67
2021/04/07 02:30:14;;;;;;;14.43;3.72;;;-3276.30;95.00;;;;;;4986665;28;20552;-67
2021/04/07 02:32:40;;;;;;;11.32;3.65;;;-3276.30;95.00;;;;;;4982112;28;20069;-68
2021/04/07 02:35:06;;;;;;;14.15;3.58;;;-3276.20;95.00;;;;;;4990550;28;20030;-68
2021/04/07 02:37:32;;;;;;;11.18;3.53;;;-3276.20;95.00;;;;;;4980324;28;20035;-68
2021/04/07 02:39:58;;;;;;;12.65;3.50;;;-3276.10;95.00;;;;;;4985242;28;20133;-68
2021/04/07 02:42:24;;;;;;;12.98;4.43;;;-3276.20;95.10;;;;;;4971937;28;20049;-67
2021/04/07 02:44:50;;;;;;;10.00;3.13;;;-3276.20;94.90;;;;;;4989865;28;20034;-68
2021/04/07 02:47:15;;;;;;;13.77;3.75;;;-3276.30;94.70;;;;;;4984020;28;20019;-68
2021/04/07 02:49:41;;;;;;;18.33;3.65;;;-3276.20;94.70;;;;;;4987666;28;20038;-68
2021/04/07 02:52:07;;;;;;;12.77;3.85;;;-3276.20;94.70;;;;;;4974190;28;20117;-67
2021/04/07 02:54:33;;;;;;;14.80;3.63;;;-3276.10;94.70;;;;;;4987089;28;20494;-69
2021/04/07 02:56:59;;;;;;;22.75;4.10;;;-3276.10;94.60;;;;;;4981395;28;20114;-71
2021/04/07 02:59:25;;;;;;;15.20;4.35;;;-3276.20;94.50;;;;;;4988868;28;20046;-69
2021/04/07 03:01:51;;;;;;;12.23;3.63;;;-3276.10;94.30;;;;;;4988577;28;20465;-69
2021/04/07 03:04:17;;;;;;;13.32;4.35;;;-3276.20;94.40;;;;;;4988830;28;20030;-69
2021/04/07 03:06:43;;;;;;;14.13;3.70;;;-3276.10;94.40;;;;;;4979334;28;20745;-68
2021/04/07 03:09:09;;;;;;;22.77;4.07;;;-3276.00;94.50;;;;;;4989010;28;20026;-69
2021/04/07 03:11:35;;;;;;;16.40;4.03;;;-3276.00;94.60;;;;;;4988916;28;20066;-69
2021/04/07 03:14:02;;;;;;;19.60;4.00;;;-3275.90;94.70;;;;;;4983874;28;20109;-69
2021/04/07 03:16:28;;;;;;;22.05;4.68;;;-3275.90;94.80;;;;;;4987577;28;20026;-69
2021/04/07 03:18:53;;;;;;;13.82;4.90;;;-3275.90;94.80;;;;;;4979797;28;20034;-69
2021/04/07 03:21:19;;;;;;;10.05;2.75;;;-3275.90;94.90;;;;;;4988072;28;20026;-68
2021/04/07 03:23:45;;;;;;;16.30;3.55;;;-3275.90;94.90;;;;;;4978911;28;20571;-69
2021/04/07 03:26:10;;;;;;;8.40;3.63;;;-3275.90;94.80;;;;;;4988301;28;20030;-68
2021/04/07 03:28:36;;;;;;;14.77;3.97;;;-3275.80;94.70;;;;;;4987222;28;20043;-70
2021/04/07 03:31:02;;;;;;;13.50;4.07;;;-3275.80;94.70;;;;;;4986890;28;20054;-70
2021/04/07 03:33:30;;;;;;;13.35;3.17;;;-3275.80;94.90;;;;;;4983978;28;20433;-69
2021/04/07 03:35:56;;;;;;;12.80;3.70;;;-3275.80;94.90;;;;;;4985345;28;20042;-69
2021/04/07 03:38:22;;;;;;;12.57;3.58;;;-3275.80;94.70;;;;;;4986078;28;20077;-69
2021/04/07 03:40:48;;;;;;;13.80;3.35;;;-3275.80;94.80;;;;;;4988324;28;20057;-70
2021/04/07 03:43:17;;;;;;;17.70;3.13;;;-3275.80;94.80;;;;;;4988728;28;20051;-69
2021/04/07 03:45:43;;;;;;;14.25;3.03;;;-3275.80;94.70;;;;;;4985402;28;20033;-68
2021/04/07 03:48:11;;;;;;;14.35;3.50;;;-3275.80;94.80;;;;;;4981744;28;20085;-69
2021/04/07 03:50:38;;;;;;;11.75;3.28;;;-3275.80;94.90;;;;;;4983525;28;20040;-69
2021/04/07 03:53:03;;;;;;;8.65;3.13;;;-3275.70;94.80;;;;;;4988584;28;20062;-67
2021/04/07 03:55:29;;;;;;;15.88;4.18;;;-3275.70;94.90;;;;;;4988042;28;20484;-67
2021/04/07 03:57:55;;;;;;;12.63;3.40;;;-3275.70;94.80;;;;;;4987426;28;20041;-67
2021/04/07 04:00:21;;;;;;;25.38;3.42;;;-3275.70;94.90;;;;;;4986473;28;20034;-67
2021/04/07 04:02:46;;;;;;;14.65;3.65;;;-3275.70;95.00;;;;;;4988322;28;20067;-68
2021/04/07 04:05:12;;;;;;;14.57;3.42;;;-3275.70;95.00;;;;;;4982101;28;20030;-67
2021/04/07 04:07:38;;;;;;;12.82;4.10;;;-3275.60;95.10;;;;;;4986190;28;20034;-68
2021/04/07 04:10:04;;;;;;;18.17;4.10;;;-3275.60;95.00;;;;;;4987563;28;20026;-67
2021/04/07 04:12:30;;;;;;;14.15;4.05;;;-3275.60;95.10;;;;;;4983678;28;20439;-67
2021/04/07 04:14:56;;;;;;;13.30;3.55;;;-3275.60;95.10;;;;;;4987959;28;20105;-67
2021/04/07 04:17:21;;;;;;;14.20;3.17;;;-3275.60;95.10;;;;;;4986213;28;20121;-66
2021/04/07 04:19:49;;;;;;;16.65;3.60;;;-3275.60;95.10;;;;;;4984963;28;20113;-67
2021/04/07 04:22:14;;;;;;;15.75;4.13;;;-3275.50;95.10;;;;;;4982215;28;20081;-67
2021/04/07 04:24:40;;;;;;;15.15;3.40;;;-3275.60;95.20;;;;;;4987538;28;20031;-67
2021/04/07 04:27:06;;;;;;;15.25;4.07;;;-3275.60;95.10;;;;;;4985150;28;20026;-67
2021/04/07 04:29:32;;;;;;;16.75;3.25;;;-3275.50;95.10;;;;;;4986432;28;20030;-67
2021/04/07 04:31:58;;;;;;;17.85;3.30;;;-3275.60;95.10;;;;;;4987406;28;20065;-67
2021/04/07 04:34:23;;;;;;;24.63;3.90;;;-3275.60;95.10;;;;;;4986680;28;20070;-67
2021/04/07 04:36:49;;;;;;;11.02;3.72;;;-3275.60;95.00;;;;;;4982663;28;20037;-67
2021/04/07 04:39:14;;;;;;;14.52;3.80;;;-3275.50;95.00;;;;;;4981221;28;20026;-68
2021/04/07 04:41:40;;;;;;;13.65;4.03;;;-3275.60;95.10;;;;;;4986115;28;20019;-66
2021/04/07 04:44:06;;;;;;;25.88;4.25;;;-3275.50;95.00;;;;;;4986522;28;20026;-67
2021/04/07 04:46:31;;;;;;;12.48;3.65;;;-3275.60;95.10;;;;;;4988206;28;20022;-67
2021/04/07 04:48:57;;;;;;;13.57;2.85;;;-3275.60;95.00;;;;;;4974696;28;20079;-67
2021/04/07 04:51:23;;;;;;;18.65;4.35;;;-3275.60;95.00;;;;;;4985845;28;20077;-68
2021/04/07 04:53:48;;;;;;;11.85;3.78;;;-3275.60;95.00;;;;;;4986593;28;20030;-68
2021/04/07 04:56:14;;;;;;;14.77;3.55;;;-3275.60;95.00;;;;;;4982975;28;20076;-67
2021/04/07 04:58:40;;;;;;;15.85;3.65;;;-3275.70;95.00;;;;;;4985458;28;20750;-67
2021/04/07 05:01:05;;;;;;;19.73;3.90;;;-3275.70;95.00;;;;;;4977773;28;20069;-66
2021/04/07 05:03:31;;;;;;;18.55;3.20;;;-3275.80;95.00;;;;;;4986501;28;20023;-67
2021/04/07 05:05:56;;;;;;;16.40;3.58;;;-3275.80;94.90;;;;;;4986815;28;20019;-68
2021/04/07 05:08:22;;;;;;;13.70;3.47;;;-3275.80;94.80;;;;;;4986042;28;20038;-67
2021/04/07 05:10:48;;;;;;;9.57;2.90;;;-3276.00;94.70;;;;;;4987164;28;20122;-67
2021/04/07 05:13:14;;;;;;;13.68;3.33;;;-3276.00;94.60;;;;;;4984442;28;20057;-67
2021/04/07 05:15:39;;;;;;;17.38;4.65;;;-3276.00;94.50;;;;;;4982197;28;20499;-67
2021/04/07 05:18:16;;;;;;;11.65;3.35;;;-3275.90;94.50;;;;;;4982411;28;20026;-66
2021/04/07 05:20:42;;;;;;;14.68;3.20;;;-3276.00;94.50;;;;;;4974894;28;20034;-66
2021/04/07 05:23:09;;;;;;;14.52;3.47;;;-3276.00;94.40;;;;;;4966993;28;20511;-66
2021/04/07 05:25:36;;;;;;;12.30;3.05;;;-3276.00;94.40;;;;;;4969172;28;20100;-67
2021/04/07 05:28:08;;;;;;;14.10;2.65;;;-3276.00;94.40;;;;;;4969002;28;20122;-67
2021/04/07 05:33:20;;;;;;;9.60;2.50;;;-3276.00;94.20;;;;;;4982241;28;20086;-66
2021/04/07 05:35:45;;;;;;;11.52;2.75;;;-3276.10;94.20;;;;;;4985319;28;20054;-67
2021/04/07 05:38:11;;;;;;;12.75;3.20;;;-3276.10;94.10;;;;;;4986615;28;20070;-68
2021/04/07 05:40:37;;;;;;;9.90;2.28;;;-3276.20;94.10;;;;;;4980936;28;20056;-68
2021/04/07 05:43:04;;;;;;;12.52;3.10;;;-3276.20;94.00;;;;;;4993908;28;20029;-68
2021/04/07 05:45:30;;;;;;;8.77;2.50;;;-3276.30;94.00;;;;;;4983684;28;20097;-67
2021/04/07 05:47:56;;;;;;;9.63;3.10;;;-3276.20;93.80;;;;;;4983789;28;20068;-67
2021/04/07 05:50:22;;;;;;;12.10;2.72;;;-3276.30;93.70;;;;;;4985711;28;20034;-67
2021/04/07 05:52:51;;;;;;;12.00;3.63;;;-3276.30;93.70;;;;;;4993870;28;20038;-67
2021/04/07 05:55:20;;;;;;;14.85;3.67;;;-3276.40;93.70;;;;;;4990872;28;20109;-67
2021/04/07 05:58:00;;;;;;;14.32;4.35;;;-3276.40;93.70;;;;;;4991833;28;20041;-66
2021/04/07 06:00:26;;;;;;;11.63;4.10;;;-3276.40;93.60;;;;;;4990998;28;20490;-68
2021/04/07 06:03:03;;;;;;;16.85;5.35;;;-3276.40;93.50;;;;;;4987049;28;20502;-67
2021/04/07 06:05:29;;;;;;;16.77;4.55;;;-3276.40;93.60;;;;;;4990869;28;20018;-68
2021/04/07 06:07:55;;;;;;;25.73;5.15;;;-3276.40;93.40;;;;;;4991142;28;20034;-68
2021/04/07 06:10:21;;;;;;;13.60;4.95;;;-3276.50;93.50;;;;;;4992976;28;20042;-67
2021/04/07 06:12:47;;;;;;;11.85;4.63;;;-3276.50;93.50;;;;;;4983146;28;20037;-67
2021/04/07 06:15:13;;;;;;;12.63;5.45;;;-3276.50;93.40;;;;;;4975304;28;20281;-67
2021/04/07 06:17:41;;;;;;;14.13;6.45;;;-3276.50;93.40;;;;;;4973859;28;20034;-67
2021/04/07 06:20:11;;;;;;;20.88;6.63;;;-3276.60;93.50;;;;;;4975301;28;20033;-67
2021/04/07 06:22:37;;;;;;;21.55;7.80;;;-3276.70;93.60;;;;;;4975184;28;20057;-68
2021/04/07 06:25:06;;;;;;;17.73;6.88;;;-3276.70;93.70;;;;;;4974499;28;20049;-67
2021/04/07 06:27:32;;;;;;;15.63;6.57;;;-3276.70;93.50;;;;;;4974254;28;20294;-67
2021/04/07 06:30:00;;;;;;;22.25;8.00;;;0.00;93.60;;;;;;4975489;28;20465;-66
2021/04/07 06:32:29;;;;;;;18.75;8.35;;;0.00;93.60;;;;;;4972766;28;20034;-68
2021/04/07 06:34:55;;;;;;;17.48;7.85;;;0.00;93.60;;;;;;4975464;28;20048;-66
2021/04/07 06:37:21;;;;;;;16.13;6.82;;;0.00;93.80;;;;;;4975295;28;20030;-66
2021/04/07 06:39:47;;;;;;;11.23;4.78;;;0.00;93.70;;;;;;4975182;28;20030;-65
2021/04/07 06:42:16;;;;;;;13.77;6.40;;;0.00;93.50;;;;;;4975697;28;20394;-66
2021/04/07 06:44:43;;;;;;;13.50;5.95;;;0.10;93.70;;;;;;4975267;28;20116;-66
2021/04/07 06:47:09;;;;;;;19.95;7.15;;;0.00;93.60;;;;;;4973409;28;20049;-67
2021/04/07 06:49:35;;;;;;;17.15;6.97;;;0.00;93.60;;;;;;4973180;28;20129;-65
2021/04/07 06:52:05;;;;;;;16.08;7.25;;;0.10;93.60;;;;;;4991540;28;20034;-67
2021/04/07 06:54:33;;;;;;;15.02;6.10;;;0.10;93.60;;;;;;4970965;28;20036;-67
2021/04/07 06:56:59;;;;;;;15.57;6.50;;;0.10;93.50;;;;;;4967194;28;20039;-66
2021/04/07 06:59:26;;;;;;;16.23;6.00;;;0.10;93.50;;;;;;4971488;28;20042;-67
2021/04/07 07:01:52;;;;;;;8.70;4.38;;;0.10;93.40;;;;;;4970328;28;20483;-66
2021/04/07 07:04:18;;;;;;;12.13;5.65;;;0.10;93.30;;;;;;4972629;28;20030;-65
2021/04/07 07:06:46;;;;;;;11.10;5.22;;;0.20;93.40;;;;;;4969399;28;20049;-67
2021/04/07 07:09:19;;;;;;;18.40;5.90;;;0.20;93.60;;;;;;4970236;28;20030;-65
2021/04/07 07:11:51;;;;;;;14.48;5.45;;;0.20;93.50;;;;;;4969169;28;20586;-66
2021/04/07 07:14:18;;;;;;;16.23;5.82;;;0.20;93.60;;;;;;4971031;28;20642;-65
2021/04/07 07:16:50;;;;;;;14.70;4.97;;;0.20;93.70;;;;;;4988158;28;20113;-66
2021/04/07 07:19:21;;;;;;;;;;;0.30;93.80;;;;;;4983752;28;20038;-67
2021/04/07 07:21:58;;;;;;;14.57;5.15;;;0.30;93.80;;;;;;4986382;28;19918;-65
2021/04/07 07:24:32;;;;;;;15.23;5.47;;;0.30;94.00;;;;;;4987378;28;20447;-66
2021/04/07 07:27:05;;;;;;;14.93;5.40;;;0.40;93.90;;;;;;4988773;28;20023;-66
2021/04/07 07:29:34;;;;;;;19.95;5.95;;;0.30;93.90;;;;;;4983876;28;20031;-66
2021/04/07 07:32:05;;;;;;;9.75;5.10;;;0.40;94.10;;;;;;4985575;28;20053;-66
2021/04/07 07:34:31;;;;;;;11.32;5.50;;;0.40;93.90;;;;;;4982863;28;20461;-66
2021/04/07 07:36:59;;;;;;;15.50;5.75;;;0.50;94.00;;;;;;4984360;28;20033;-65
2021/04/07 07:39:36;;;;;;;15.48;5.85;;;0.50;94.00;;;;;;4980062;28;20038;-66
2021/04/07 07:42:07;;;;;;;12.00;5.30;;;0.50;94.10;;;;;;4988572;28;20580;-66
2021/04/07 07:44:36;;;;;;;10.18;5.22;;;0.50;94.10;;;;;;4983152;28;20033;-66
2021/04/07 07:47:14;;;;;;;15.43;5.68;;;0.50;94.30;;;;;;4983662;28;20180;-67
2021/04/07 07:49:40;;;;;;;15.20;5.82;;;0.50;94.40;;;;;;4983577;28;20282;-67
2021/04/07 07:52:06;;;;;;;13.35;5.47;;;0.60;94.60;;;;;;4983539;28;20388;-67
2021/04/07 07:54:31;;;;;;;10.90;5.03;;;0.60;94.40;;;;;;4972683;28;20031;-65
2021/04/07 07:56:57;;;;;;;9.82;4.65;;;0.50;94.40;;;;;;4987208;28;20396;-67
2021/04/07 07:59:28;;;;;;;13.82;4.53;;;0.50;94.50;;;;;;4983215;28;20086;-67
2021/04/07 08:01:54;;;;;;;10.10;4.05;;;0.50;94.50;;;;;;4984595;28;20506;-67
2021/04/07 08:04:19;;;;;;;10.00;4.30;;;0.60;94.60;;;;;;4979160;28;20041;-67
2021/04/07 08:06:46;;;;;;;12.55;4.40;;;0.60;94.50;;;;;;4980024;28;20029;-67
2021/04/07 08:09:12;;;;;;;11.75;4.72;;;0.60;94.50;;;;;;4983759;28;20034;-67
2021/04/07 08:11:43;;;;;;;9.35;4.32;;;0.60;94.50;;;;;;4983678;28;20494;-67
2021/04/07 08:14:13;;;;;;;10.77;4.53;;;0.60;94.50;;;;;;4986588;28;20474;-67
2021/04/07 08:16:39;;;;;;;13.50;4.70;;;0.70;94.70;;;;;;4988294;28;20023;-67
2021/04/07 08:19:05;;;;;;;10.68;4.30;;;0.70;94.70;;;;;;4973824;28;20030;-68
2021/04/07 08:21:31;;;;;;;7.40;4.10;;;0.80;94.50;;;;;;4981375;28;21186;-70
2021/04/07 08:24:01;;;;;;;6.47;3.75;;;0.80;94.60;;;;;;4984556;28;20041;-68
2021/04/07 08:26:31;;;;;;;7.40;3.85;;;0.80;94.60;;;;;;4986815;28;20026;-67
2021/04/07 08:28:57;;;;;;;13.65;4.72;;;0.80;94.70;;;;;;4986275;28;20030;-67
2021/04/07 08:31:26;;;;;;;12.68;4.60;;;0.90;94.70;;;;;;4982367;28;20065;-67
2021/04/07 08:33:54;;;;;;;11.65;4.57;;;1.00;94.80;;;;;;4984221;28;20262;-67
2021/04/07 08:36:25;;;;;;;8.05;4.13;;;1.00;94.80;;;;;;4981598;28;20511;-67
2021/04/07 08:39:00;;;;;;;;;;;1.00;94.30;;;;;;4985461;28;20084;-67
2021/04/07 08:41:26;;;;;;;8.82;3.33;;;1.10;93.90;;;;;;4982413;28;19910;-67
2021/04/07 08:43:53;;;;;;;9.02;3.63;;;1.20;93.80;;;;;;4981948;28;20026;-67
2021/04/07 08:46:23;;;;;;;6.68;4.10;;;1.30;93.60;;;;;;4987233;28;20029;-66
2021/04/07 08:48:48;;;;;;;10.00;3.80;;;1.30;93.40;;;;;;4979031;28;20518;-68
2021/04/07 08:51:16;;;;;;;5.38;3.42;;;1.40;92.90;;;;;;4985230;28;20030;-66
2021/04/07 08:53:48;;;;;;;6.90;2.83;;;1.40;93.00;;;;;;4982287;28;20030;-67
2021/04/07 08:56:17;;;;;;;6.15;3.40;;;1.40;92.70;;;;;;4983119;28;20101;-67
2021/04/07 08:58:55;;;;;;;7.10;3.70;;;1.60;92.90;;;;;;4978424;28;20023;-68
2021/04/07 09:01:40;;;;;;;8.18;4.07;;;1.60;92.30;;;;;;4983798;28;20125;-67
2021/04/07 09:04:19;;;;;;;8.65;3.53;;;1.70;92.30;;;;;;4983429;28;20510;-67
2021/04/07 09:06:58;;;;;;;6.75;3.67;;;1.80;92.40;;;;;;4984938;28;20031;-67
2021/04/07 09:09:24;;;;;;;7.25;3.88;;;1.70;92.10;;;;;;4979619;28;20027;-67
2021/04/07 09:11:51;;;;;;;6.18;3.70;;;1.70;92.00;;;;;;4981801;28;20044;-67
2021/04/07 09:14:18;;;;;;;5.70;3.88;;;1.70;91.90;;;;;;4984885;28;20034;-67
2021/04/07 09:16:45;;;;;;;6.60;3.65;;;1.80;92.10;;;;;;4982635;28;20022;-67
2021/04/07 09:19:21;;;;;;;6.80;3.42;;;1.80;91.90;;;;;;4972333;28;20149;-66
2021/04/07 09:21:57;;;;;;;7.63;3.80;;;1.70;91.50;;;;;;4967488;28;20064;-67
2021/04/07 09:24:27;;;;;;;7.43;4.00;;;1.80;91.90;;;;;;4973799;28;20034;-68
2021/04/07 09:26:54;;;;;;;6.70;4.47;;;1.80;91.80;;;;;;4967380;28;20742;-67
2021/04/07 09:29:20;;;;;;;5.70;3.30;;;1.90;91.80;;;;;;4968347;28;20084;-66
2021/04/07 09:31:48;;;;;;;6.03;3.05;;;1.90;91.30;;;;;;4968881;28;20030;-67
2021/04/07 09:34:14;;;;;;;6.85;3.30;;;2.00;91.10;;;;;;4968256;28;20030;-66
2021/04/07 09:36:42;;;;;;;8.15;3.90;;;2.00;91.00;;;;;;4969286;28;20023;-68
2021/04/07 09:39:29;;;;;;;5.82;3.50;;;2.10;91.10;;;;;;4980525;28;20097;-67
2021/04/07 09:41:56;;;;;;;6.18;3.40;;;2.20;91.00;;;;;;4984958;28;20954;-68
2021/04/07 09:44:22;;;;;;;8.85;3.97;;;2.20;90.20;;;;;;4985915;28;20426;-68
2021/04/07 09:46:57;;;;;;;6.68;3.70;;;2.40;90.30;;;;;;4986985;28;20036;-67
2021/04/07 09:49:27;;;;;;;7.55;4.20;;;2.50;90.70;;;;;;4985664;28;20130;-68
2021/04/07 09:51:53;;;;;;;7.40;4.10;;;2.60;90.10;;;;;;4979235;28;20039;-68
2021/04/07 09:54:31;;;;;;;5.95;3.03;;;2.80;90.30;;;;;;4979814;28;20040;-68
2021/04/07 09:56:57;;;;;;;10.02;3.40;;;2.80;89.00;;;;;;4980975;28;20061;-67
2021/04/07 09:59:42;;;;;;;8.65;3.75;;;3.00;89.50;;;;;;4981362;28;20515;-67
2021/04/07 10:02:23;;;;;;;6.40;3.50;;;3.10;89.10;;;;;;4977312;28;20050;-67
2021/04/07 10:04:50;;;;;;;5.55;3.38;;;3.30;88.80;;;;;;4976817;28;20026;-67
2021/04/07 10:07:20;;;;;;;6.22;3.50;;;3.20;88.50;;;;;;4983928;28;20027;-68
2021/04/07 10:09:48;;;;;;;4.47;2.97;;;3.30;89.10;;;;;;4976247;28;20030;-68
2021/04/07 10:12:16;;;;;;;6.55;3.30;;;3.20;88.70;;;;;;4980264;28;20453;-67
2021/04/07 10:14:54;;;;;;;5.82;3.33;;;3.30;88.50;;;;;;4985664;28;20403;-68
2021/04/07 10:17:22;;;;;;;5.40;3.33;;;3.30;88.20;;;;;;4979872;28;20101;-67
2021/04/07 10:19:48;;;;;;;6.45;3.53;;;3.20;88.30;;;;;;4982733;28;20041;-68
2021/04/07 10:22:21;;;;;;;5.95;3.50;;;3.10;88.30;;;;;;4972848;28;20099;-67
2021/04/07 10:24:48;;;;;;;5.35;3.35;;;3.30;88.90;;;;;;4997366;28;20372;-68
2021/04/07 10:27:21;;;;;;;5.57;3.38;;;3.30;88.20;;;;;;4982568;28;20557;-67
2021/04/07 10:29:48;;;;;;;5.53;2.95;;;3.50;88.60;;;;;;4984861;28;20125;-67
2021/04/07 10:32:18;;;;;;;5.40;2.80;;;3.60;87.40;;;;;;4988419;28;20390;-67
2021/04/07 10:34:46;;;;;;;5.55;3.20;;;3.90;86.80;;;;;;4986279;28;20087;-67
2021/04/07 10:37:21;;;;;;;5.50;3.35;;;4.20;87.00;;;;;;4982832;28;20109;-67
2021/04/07 10:39:47;;;;;;;8.32;3.90;;;4.60;86.30;;;;;;4983441;28;20041;-68
2021/04/07 10:42:18;;;;;;;5.15;2.53;;;5.10;85.20;;;;;;4990042;28;20022;-68
2021/04/07 10:44:44;;;;;;;6.47;2.88;;;5.30;84.60;;;;;;4986177;28;20034;-67
2021/04/07 10:47:19;;;;;;;4.47;2.83;;;5.40;84.20;;;;;;4980347;28;20034;-68
2021/04/07 10:49:57;;;;;;;3.90;2.42;;;5.50;83.60;;;;;;4983883;28;20057;-67
2021/04/07 10:52:33;;;;;;;5.03;2.13;;;5.20;83.20;;;;;;4984785;28;20044;-67
2021/04/07 10:55:00;;;;;;;4.13;2.38;;;4.70;83.60;;;;;;4984358;28;20037;-68
2021/04/07 10:57:31;;;;;;;4.40;2.20;;;4.60;84.40;;;;;;4984842;28;20034;-68
2021/04/07 10:59:56;;;;;;;6.67;3.00;;;4.30;85.20;;;;;;4985642;28;20420;-68
2021/04/07 11:02:23;;;;;;;4.13;2.42;;;4.40;86.90;;;;;;4987476;28;20501;-67
2021/04/07 11:04:49;;;;;;;5.30;2.70;;;4.20;86.30;;;;;;4987368;28;20019;-67
2021/04/07 11:07:16;;;;;;;6.93;2.90;;;4.10;85.90;;;;;;4988435;28;20510;-67
2021/04/07 11:09:47;;;;;;;4.93;2.53;;;4.10;86.70;;;;;;4987240;28;20062;-68
2021/04/07 11:12:14;;;;;;;3.60;2.20;;;4.10;86.70;;;;;;4988178;28;20503;-67
2021/04/07 11:14:41;;;;;;;7.20;2.47;;;4.10;87.20;;;;;;4984841;28;20137;-68
2021/04/07 11:17:14;;;;;;;7.05;2.70;;;4.30;87.80;;;;;;4984463;28;20410;-67
2021/04/07 11:19:40;;;;;;;3.97;2.45;;;4.40;87.90;;;;;;4980926;28;20034;-67
2021/04/07 11:22:08;;;;;;;8.30;2.58;;;4.30;88.30;;;;;;4984679;28;20100;-67
2021/04/07 11:24:35;;;;;;;5.05;2.40;;;4.10;87.10;;;;;;4987956;28;20315;-67
2021/04/07 11:27:01;;;;;;;6.45;3.38;;;4.10;88.00;;;;;;4982967;28;20050;-67
2021/04/07 11:29:27;;;;;;;4.57;2.78;;;4.00;89.50;;;;;;4981987;28;20034;-66
2021/04/07 11:31:55;;;;;;;7.35;3.13;;;4.00;90.70;;;;;;4986795;28;20065;-67
2021/04/07 11:34:29;;;;;;;6.40;2.90;;;4.00;90.70;;;;;;4981947;28;20538;-67
2021/04/07 11:37:08;;;;;;;7.25;3.40;;;3.80;89.70;;;;;;4987648;28;20043;-66
2021/04/07 11:39:38;;;;;;;5.80;3.30;;;3.90;91.30;;;;;;4987545;28;20391;-67
2021/04/07 11:42:11;;;;;;;6.20;3.22;;;3.90;91.40;;;;;;4978204;28;20095;-67
2021/04/07 11:44:37;;;;;;;7.05;3.25;;;3.90;91.50;;;;;;4982315;28;20110;-68
2021/04/07 11:47:03;;;;;;;4.55;2.90;;;4.00;91.80;;;;;;4987734;28;20105;-68
2021/04/07 11:49:30;;;;;;;5.07;2.22;;;4.10;92.50;;;;;;4985847;28;20038;-67
2021/04/07 11:51:56;;;;;;;5.55;2.75;;;3.90;91.60;;;;;;4982928;28;20022;-66
2021/04/07 11:54:22;;;;;;;5.97;2.80;;;3.90;92.10;;;;;;4987829;28;20036;-67
2021/04/07 11:56:48;;;;;;;4.97;2.70;;;3.80;91.80;;;;;;4987042;28;20072;-67
2021/04/07 11:59:19;;;;;;;6.53;3.40;;;3.80;92.30;;;;;;4984680;28;20398;-68
2021/04/07 12:01:47;;;;;;;7.03;3.53;;;3.80;92.20;;;;;;4967613;28;20041;-66
2021/04/07 12:04:13;;;;;;;7.95;3.90;;;3.90;93.10;;;;;;4978229;28;20037;-67
2021/04/07 12:06:39;;;;;;;8.38;4.82;;;3.90;92.50;;;;;;4983055;28;20027;-67
2021/04/07 12:09:06;;;;;;;5.60;3.63;;;4.30;93.10;;;;;;4977709;28;20027;-67
2021/04/07 12:11:33;;;;;;;8.00;3.03;;;4.50;92.80;;;;;;4978555;28;20035;-67
2021/04/07 12:13:59;;;;;;;6.10;3.03;;;4.40;92.30;;;;;;4981854;28;20038;-67
2021/04/07 12:16:25;;;;;;;8.25;3.53;;;4.20;92.90;;;;;;4978934;28;20032;-67
2021/04/07 12:18:50;;;;;;;7.82;3.28;;;4.00;92.90;;;;;;4980084;28;20620;-67
2021/04/07 12:21:17;;;;;;;5.88;2.22;;;3.90;93.50;;;;;;4982142;28;20030;-67
2021/04/07 12:23:45;;;;;;;2.35;1.35;;;3.80;93.40;;;;;;4978615;28;20466;-67
2021/04/07 12:26:14;;;;;;;2.83;1.38;;;3.50;92.30;;;;;;4979491;28;20026;-68
2021/04/07 12:28:41;;;;;;;5.40;1.95;;;3.40;92.30;;;;;;4979979;28;20085;-67
2021/04/07 12:31:07;;;;;;;9.55;2.97;;;3.40;93.00;;;;;;4983744;28;20038;-68
2021/04/07 12:33:32;;;;;;;11.13;4.60;;;3.30;93.10;;;;;;4981454;28;20041;-67
2021/04/07 12:36:12;;;;;;;6.25;2.00;;;3.50;93.40;;;;;;4980007;28;20049;-67
2021/04/07 12:38:38;;;;;;;6.70;3.10;;;3.60;92.90;;;;;;4979997;28;20027;-67